Time;durP1;ratioP1;P1;durP2;ratioP2;P2;SDS_P1;SDS_P2;PMS_P1;PMS_P2;Temp;Humidity;BMP_temperature;BMP_pressure;BME280_temperature;BME280_humidity;BME280_pressure;Samples;Min_cycle;Max_cycle;Signal;HPM_P1;HPM_P2
2024/01/21 00:00:36;;;;;;;14.25;6.78;;;;;;;;;;5093088;28;20024;-37
2024/01/21 00:03:01;;;;;;;16.33;6.97;;;;;;;;;;5093429;28;20023;-37
2024/01/21 00:05:26;;;;;;;13.40;6.32;;;;;;;;;;5093156;28;20035;-38
2024/01/21 00:07:51;;;;;;;12.27;6.18;;;;;;;;;;5093206;28;20050;-38
2024/01/21 00:10:17;;;;;;;14.27;6.90;;;;;;;;;;5093599;28;20016;-37
2024/01/21 00:12:42;;;;;;;14.07;6.47;;;;;;;;;;5093904;28;20047;-38
2024/01/21 00:15:07;;;;;;;17.23;6.50;;;;;;;;;;5092916;28;20023;-38
2024/01/21 00:17:33;;;;;;;15.10;6.15;;;;;;;;;;5093312;28;20020;-37
2024/01/21 00:19:58;;;;;;;13.20;6.00;;;;;;;;;;5092892;28;20025;-38
2024/01/21 00:22:23;;;;;;;13.88;6.47;;;;;;;;;;5093136;28;20093;-38
2024/01/21 00:24:49;;;;;;;13.35;5.15;;;;;;;;;;5074610;28;20451;-37
2024/01/21 00:27:14;;;;;;;14.95;6.85;;;;;;;;;;5074717;28;20016;-37
2024/01/21 00:29:39;;;;;;;11.25;5.32;;;;;;;;;;5092999;28;20028;-37
2024/01/21 00:32:05;;;;;;;13.98;6.15;;;;;;;;;;5093079;28;20024;-38
2024/01/21 00:34:30;;;;;;;16.98;5.70;;;;;;;;;;5093568;28;20452;-38
2024/01/21 00:36:55;;;;;;;14.27;6.77;;;;;;;;;;5093656;28;20023;-38
2024/01/21 00:39:20;;;;;;;12.88;6.20;;;;;;;;;;5093921;28;20427;-42
2024/01/21 00:41:49;;;;;;;13.93;6.10;;;;;;;;;;5093876;28;20020;-35
2024/01/21 00:44:14;;;;;;;11.77;5.63;;;;;;;;;;5093352;28;20482;-35
2024/01/21 00:46:39;;;;;;;12.57;5.63;;;;;;;;;;5093577;28;20016;-36
2024/01/21 00:49:05;;;;;;;11.23;6.15;;;;;;;;;;5093265;28;20103;-36
2024/01/21 00:51:30;;;;;;;12.38;5.50;;;;;;;;;;5094268;28;20066;-36
2024/01/21 00:53:55;;;;;;;13.63;5.50;;;;;;;;;;5097415;28;20024;-37
2024/01/21 00:56:21;;;;;;;12.88;5.53;;;;;;;;;;5097571;28;20120;-37
2024/01/21 00:58:46;;;;;;;10.90;4.25;;;;;;;;;;5097260;28;20103;-36
2024/01/21 01:01:11;;;;;;;11.97;5.47;;;;;;;;;;5097227;28;20024;-37
2024/01/21 01:03:38;;;;;;;11.73;5.03;;;;;;;;;;5097592;28;20332;-36
2024/01/21 01:06:03;;;;;;;11.05;4.75;;;;;;;;;;5097371;28;20016;-35
2024/01/21 01:08:28;;;;;;;9.60;4.25;;;;;;;;;;5096994;28;20048;-35
2024/01/21 01:10:53;;;;;;;9.98;4.88;;;;;;;;;;5079561;28;20008;-35
2024/01/21 01:13:18;;;;;;;13.60;5.13;;;;;;;;;;5096861;28;20099;-35
2024/01/21 01:15:43;;;;;;;8.82;4.57;;;;;;;;;;5096910;28;20267;-36
2024/01/21 01:18:09;;;;;;;10.27;4.88;;;;;;;;;;5097166;28;20474;-35
2024/01/21 01:20:34;;;;;;;11.32;4.97;;;;;;;;;;5096848;28;20016;-36
2024/01/21 01:23:00;;;;;;;8.60;4.25;;;;;;;;;;5097307;28;20047;-35
2024/01/21 01:25:27;;;;;;;5.97;3.40;;;;;;;;;;5097026;28;20413;-36
2024/01/21 01:27:52;;;;;;;10.40;4.22;;;;;;;;;;5096677;28;20051;-35
2024/01/21 01:30:18;;;;;;;9.35;4.30;;;;;;;;;;5096862;28;20056;-36
2024/01/21 01:32:43;;;;;;;8.75;4.28;;;;;;;;;;5096662;28;20520;-36
2024/01/21 01:35:08;;;;;;;8.23;4.03;;;;;;;;;;5096513;28;20368;-36
2024/01/21 01:37:33;;;;;;;9.88;4.07;;;;;;;;;;5096740;28;20262;-36
2024/01/21 01:39:58;;;;;;;9.50;4.78;;;;;;;;;;5096471;28;20069;-35
2024/01/21 01:42:24;;;;;;;9.45;4.07;;;;;;;;;;5096604;28;20157;-34
2024/01/21 01:44:49;;;;;;;9.18;3.55;;;;;;;;;;5096971;28;20069;-35
2024/01/21 01:47:14;;;;;;;8.65;3.42;;;;;;;;;;5096881;28;20023;-36
2024/01/21 01:49:40;;;;;;;8.03;4.03;;;;;;;;;;5096278;28;20471;-35
2024/01/21 01:52:05;;;;;;;9.05;4.03;;;;;;;;;;5096227;28;20254;-36
2024/01/21 01:54:33;;;;;;;7.55;3.03;;;;;;;;;;5096771;28;20085;-36
2024/01/21 01:56:59;;;;;;;12.25;4.15;;;;;;;;;;5078352;28;20051;-36
2024/01/21 01:59:26;;;;;;;8.25;3.90;;;;;;;;;;5096335;28;20024;-36
2024/01/21 02:01:51;;;;;;;8.20;4.10;;;;;;;;;;5096244;28;20042;-36
2024/01/21 02:04:17;;;;;;;7.75;3.90;;;;;;;;;;5094736;28;20020;-36
2024/01/21 02:06:42;;;;;;;6.40;3.57;;;;;;;;;;5096025;28;20374;-36
2024/01/21 02:09:08;;;;;;;9.38;4.32;;;;;;;;;;5095901;28;20292;-36
2024/01/21 02:11:33;;;;;;;8.40;3.78;;;;;;;;;;5096009;28;20020;-36
2024/01/21 02:13:58;;;;;;;9.48;4.05;;;;;;;;;;5095875;28;20036;-36
2024/01/21 02:16:23;;;;;;;10.40;3.70;;;;;;;;;;5096328;28;20076;-36
2024/01/21 02:18:49;;;;;;;9.07;4.35;;;;;;;;;;5095773;28;20258;-36
2024/01/21 02:21:14;;;;;;;9.10;4.00;;;;;;;;;;5095508;28;20371;-35
2024/01/21 02:23:40;;;;;;;9.23;4.30;;;;;;;;;;5095551;28;20024;-36
2024/01/21 02:26:05;;;;;;;9.10;4.45;;;;;;;;;;5095592;28;20455;-35
2024/01/21 02:28:30;;;;;;;6.60;3.28;;;;;;;;;;5095526;28;20077;-35
2024/01/21 02:30:56;;;;;;;6.68;3.75;;;;;;;;;;5096034;28;20016;-36
2024/01/21 02:33:21;;;;;;;9.50;3.75;;;;;;;;;;5095723;28;20506;-36
2024/01/21 02:35:46;;;;;;;10.68;3.90;;;;;;;;;;5095371;28;20027;-36
2024/01/21 02:38:11;;;;;;;6.40;3.13;;;;;;;;;;5095613;28;20099;-35
2024/01/21 02:40:37;;;;;;;9.60;3.38;;;;;;;;;;5095865;28;20016;-36
2024/01/21 02:43:04;;;;;;;7.13;3.50;;;;;;;;;;5095172;28;20016;-35
2024/01/21 02:45:29;;;;;;;6.65;3.75;;;;;;;;;;5095504;28;20023;-36
2024/01/21 02:47:54;;;;;;;12.20;2.80;;;;;;;;;;5095133;28;20020;-36
2024/01/21 02:50:20;;;;;;;7.07;3.30;;;;;;;;;;5095676;28;20027;-36
2024/01/21 02:52:45;;;;;;;9.25;3.33;;;;;;;;;;5095042;28;20425;-34
2024/01/21 02:55:10;;;;;;;7.13;3.10;;;;;;;;;;5095056;28;20024;-34
2024/01/21 02:57:35;;;;;;;7.05;3.58;;;;;;;;;;5094926;28;20280;-36
2024/01/21 03:00:04;;;;;;;8.33;3.70;;;;;;;;;;5094944;28;20111;-36
2024/01/21 03:02:29;;;;;;;7.88;3.63;;;;;;;;;;5095175;28;20357;-36
2024/01/21 03:04:54;;;;;;;6.80;3.40;;;;;;;;;;5095029;28;20418;-36
2024/01/21 03:07:19;;;;;;;8.30;3.70;;;;;;;;;;5094688;28;20016;-36
2024/01/21 03:09:45;;;;;;;10.75;3.88;;;;;;;;;;5095265;28;20012;-36
2024/01/21 03:12:10;;;;;;;8.23;3.55;;;;;;;;;;5094863;28;20016;-36
2024/01/21 03:14:35;;;;;;;6.07;3.30;;;;;;;;;;5076097;28;20370;-33
2024/01/21 03:17:00;;;;;;;8.43;3.40;;;;;;;;;;5095180;28;20261;-35
2024/01/21 03:19:25;;;;;;;9.03;3.80;;;;;;;;;;5094648;28;20099;-41
2024/01/21 03:21:51;;;;;;;7.43;3.83;;;;;;;;;;5094515;28;20254;-35
2024/01/21 03:24:16;;;;;;;5.70;2.92;;;;;;;;;;5094781;28;20099;-36
2024/01/21 03:26:41;;;;;;;9.82;3.80;;;;;;;;;;5094411;28;20024;-35
2024/01/21 03:29:06;;;;;;;7.77;3.47;;;;;;;;;;5094616;28;20016;-36
2024/01/21 03:31:32;;;;;;;8.70;3.88;;;;;;;;;;5094295;28;20254;-35
2024/01/21 03:33:57;;;;;;;7.05;3.42;;;;;;;;;;5094584;28;20058;-35
2024/01/21 03:36:22;;;;;;;8.63;4.00;;;;;;;;;;5094735;28;20378;-35
2024/01/21 03:38:50;;;;;;;7.40;3.58;;;;;;;;;;5094752;28;20035;-35
2024/01/21 03:41:15;;;;;;;9.18;3.60;;;;;;;;;;5094325;28;20020;-35
2024/01/21 03:43:40;;;;;;;6.18;3.35;;;;;;;;;;5094081;28;20371;-36
2024/01/21 03:46:06;;;;;;;6.65;3.30;;;;;;;;;;5094107;28;20019;-35
2024/01/21 03:48:31;;;;;;;7.47;3.50;;;;;;;;;;5094079;28;20027;-36
2024/01/21 03:50:56;;;;;;;7.18;3.75;;;;;;;;;;5093997;28;20529;-35
2024/01/21 03:53:21;;;;;;;8.18;3.45;;;;;;;;;;5093980;28;20034;-35
2024/01/21 03:55:46;;;;;;;6.78;3.67;;;;;;;;;;5094169;28;20024;-35
2024/01/21 03:58:11;;;;;;;7.18;4.03;;;;;;;;;;5093793;28;20044;-35
2024/01/21 04:00:37;;;;;;;8.85;3.30;;;;;;;;;;5094132;28;20019;-36
2024/01/21 04:03:02;;;;;;;6.95;3.40;;;;;;;;;;5093711;28;20367;-36
2024/01/21 04:05:27;;;;;;;6.30;3.05;;;;;;;;;;5093658;28;20054;-36
2024/01/21 04:07:52;;;;;;;7.13;3.70;;;;;;;;;;5093672;28;20040;-36
2024/01/21 04:10:17;;;;;;;9.15;4.10;;;;;;;;;;5094159;28;20016;-36
2024/01/21 04:12:44;;;;;;;7.28;3.60;;;;;;;;;;5093425;28;20131;-35
2024/01/21 04:15:09;;;;;;;7.78;3.55;;;;;;;;;;5093515;28;20059;-36
2024/01/21 04:17:34;;;;;;;7.88;4.40;;;;;;;;;;5093492;28;20016;-36
2024/01/21 04:19:59;;;;;;;6.50;3.25;;;;;;;;;;5094137;28;20016;-35
2024/01/21 04:22:24;;;;;;;6.53;3.53;;;;;;;;;;5093742;28;20451;-36
2024/01/21 04:24:50;;;;;;;8.02;3.70;;;;;;;;;;5093545;28;20016;-35
2024/01/21 04:27:15;;;;;;;5.37;2.97;;;;;;;;;;5092785;28;20023;-36
2024/01/21 04:29:40;;;;;;;8.60;3.78;;;;;;;;;;5093432;28;20323;-36
2024/01/21 04:32:05;;;;;;;6.50;3.50;;;;;;;;;;5093968;28;20051;-35
2024/01/21 04:34:31;;;;;;;7.72;3.78;;;;;;;;;;5093665;28;20024;-36
2024/01/21 04:36:56;;;;;;;8.35;3.70;;;;;;;;;;5093363;28;20024;-36
2024/01/21 04:39:22;;;;;;;8.43;3.80;;;;;;;;;;5093936;28;20112;-35
2024/01/21 04:41:47;;;;;;;8.02;4.15;;;;;;;;;;5093374;28;20020;-35
2024/01/21 04:44:12;;;;;;;5.95;2.92;;;;;;;;;;5093291;28;20470;-35
2024/01/21 04:46:37;;;;;;;6.65;3.33;;;;;;;;;;5093326;28;20022;-36
2024/01/21 04:49:03;;;;;;;6.88;3.35;;;;;;;;;;5093134;28;20052;-35
2024/01/21 04:51:28;;;;;;;10.02;3.30;;;;;;;;;;5093803;28;20103;-35
2024/01/21 04:53:53;;;;;;;9.27;3.85;;;;;;;;;;5093804;28;20099;-34
2024/01/21 04:56:18;;;;;;;8.00;4.00;;;;;;;;;;5093213;28;20032;-35
2024/01/21 04:58:44;;;;;;;7.40;3.38;;;;;;;;;;5093123;28;20073;-36
2024/01/21 05:01:09;;;;;;;8.18;3.42;;;;;;;;;;5093171;28;20028;-34
2024/01/21 05:03:34;;;;;;;8.68;3.80;;;;;;;;;;5093081;28;20085;-35
2024/01/21 05:06:00;;;;;;;7.23;2.90;;;;;;;;;;5093025;28;20534;-35
2024/01/21 05:08:25;;;;;;;6.35;2.80;;;;;;;;;;5093224;28;20293;-35
2024/01/21 05:10:50;;;;;;;7.00;3.65;;;;;;;;;;5093112;28;20478;-35
2024/01/21 05:13:15;;;;;;;9.40;3.83;;;;;;;;;;5093004;28;20028;-35
2024/01/21 05:15:40;;;;;;;9.07;3.80;;;;;;;;;;5093021;28;20482;-35
2024/01/21 05:18:05;;;;;;;8.65;4.25;;;;;;;;;;5093031;28;20056;-35
2024/01/21 05:20:31;;;;;;;8.25;3.47;;;;;;;;;;5093042;28;20113;-35
2024/01/21 05:22:56;;;;;;;6.93;3.72;;;;;;;;;;5092938;28;20024;-36
2024/01/21 05:25:21;;;;;;;9.35;3.83;;;;;;;;;;5092983;28;20297;-35
2024/01/21 05:27:46;;;;;;;7.70;3.90;;;;;;;;;;5092943;28;20095;-35
2024/01/21 05:30:12;;;;;;;7.80;4.00;;;;;;;;;;5092924;28;20786;-34
2024/01/21 05:32:37;;;;;;;7.65;3.90;;;;;;;;;;5093123;28;20024;-35
2024/01/21 05:35:02;;;;;;;8.32;3.97;;;;;;;;;;5092901;28;20016;-35
2024/01/21 05:37:27;;;;;;;11.43;3.95;;;;;;;;;;5094091;28;20026;-35
2024/01/21 05:39:53;;;;;;;5.90;3.00;;;;;;;;;;5096494;28;20454;-36
2024/01/21 05:42:18;;;;;;;9.65;4.20;;;;;;;;;;5096668;28;20406;-35
2024/01/21 05:44:43;;;;;;;9.30;4.30;;;;;;;;;;5096447;28;20089;-35
2024/01/21 05:47:08;;;;;;;10.13;3.53;;;;;;;;;;5096658;28;20405;-35
2024/01/21 05:49:33;;;;;;;8.52;4.13;;;;;;;;;;5096340;28;20024;-36
2024/01/21 05:51:59;;;;;;;9.25;4.43;;;;;;;;;;5096219;28;20012;-35
2024/01/21 05:54:27;;;;;;;7.45;3.65;;;;;;;;;;5096479;28;20344;-36
2024/01/21 05:56:52;;;;;;;13.77;4.22;;;;;;;;;;5096206;28;20016;-35
2024/01/21 05:59:19;;;;;;;8.63;4.30;;;;;;;;;;5096184;28;20016;-36
2024/01/21 06:01:46;;;;;;;8.70;4.40;;;;;;;;;;5096362;28;20016;-35
2024/01/21 06:04:12;;;;;;;10.88;3.88;;;;;;;;;;5096030;28;20039;-36
2024/01/21 06:06:37;;;;;;;9.02;4.38;;;;;;;;;;5096013;28;20012;-35
2024/01/21 06:09:02;;;;;;;10.55;4.60;;;;;;;;;;5095782;28;20040;-34
2024/01/21 06:11:28;;;;;;;8.73;4.00;;;;;;;;;;5096323;28;20424;-36
2024/01/21 06:13:53;;;;;;;8.65;4.38;;;;;;;;;;5095822;28;20046;-35
2024/01/21 06:16:19;;;;;;;10.03;4.40;;;;;;;;;;5096418;28;20016;-36
2024/01/21 06:18:44;;;;;;;10.97;4.80;;;;;;;;;;5095733;28;20319;-35
2024/01/21 06:21:09;;;;;;;7.03;3.45;;;;;;;;;;5096310;28;20246;-35
2024/01/21 06:23:34;;;;;;;8.27;4.30;;;;;;;;;;5095575;28;20063;-35
2024/01/21 06:25:59;;;;;;;10.07;4.30;;;;;;;;;;5096145;28;20069;-35
2024/01/21 06:28:24;;;;;;;7.13;3.83;;;;;;;;;;5095729;28;20262;-35
2024/01/21 06:30:50;;;;;;;10.52;4.45;;;;;;;;;;5095514;28;20325;-35
2024/01/21 06:33:15;;;;;;;8.50;4.20;;;;;;;;;;5077350;28;20012;-35
2024/01/21 06:35:40;;;;;;;8.13;3.97;;;;;;;;;;5095408;28;20055;-36
2024/01/21 06:38:05;;;;;;;10.48;4.45;;;;;;;;;;5095467;28;20254;-34
2024/01/21 06:40:30;;;;;;;8.60;4.28;;;;;;;;;;5095649;28;20348;-36
2024/01/21 06:42:55;;;;;;;9.67;4.30;;;;;;;;;;5095705;28;20016;-34
2024/01/21 06:45:21;;;;;;;7.87;4.13;;;;;;;;;;5095261;28;20678;-35
2024/01/21 06:47:46;;;;;;;8.85;4.57;;;;;;;;;;5096233;28;20262;-35
2024/01/21 06:50:11;;;;;;;10.13;4.60;;;;;;;;;;5094957;28;20103;-35
2024/01/21 06:52:36;;;;;;;21.02;4.50;;;;;;;;;;5095624;28;20567;-35
2024/01/21 06:55:02;;;;;;;9.57;4.60;;;;;;;;;;5095691;28;20099;-35
2024/01/21 06:57:27;;;;;;;10.02;4.70;;;;;;;;;;5095259;28;20262;-35
2024/01/21 06:59:52;;;;;;;10.43;4.53;;;;;;;;;;5095198;28;20016;-35
2024/01/21 07:02:17;;;;;;;9.02;4.60;;;;;;;;;;5095386;28;20028;-35
2024/01/21 07:04:42;;;;;;;7.85;3.80;;;;;;;;;;5094878;28;20036;-34
2024/01/21 07:07:08;;;;;;;9.57;4.80;;;;;;;;;;5094980;28;20038;-34
2024/01/21 07:09:33;;;;;;;11.13;4.45;;;;;;;;;;5094605;28;20291;-35
2024/01/21 07:11:59;;;;;;;8.70;4.30;;;;;;;;;;5094566;28;20020;-36
2024/01/21 07:14:24;;;;;;;9.27;4.53;;;;;;;;;;5094635;28;20024;-36
2024/01/21 07:16:49;;;;;;;10.82;4.82;;;;;;;;;;5095181;28;20091;-36
2024/01/21 07:19:14;;;;;;;9.05;4.90;;;;;;;;;;5094854;28;20016;-35
2024/01/21 07:21:40;;;;;;;9.85;4.50;;;;;;;;;;5094576;28;20439;-35
2024/01/21 07:24:05;;;;;;;9.85;4.78;;;;;;;;;;5094639;28;20107;-35
2024/01/21 07:26:30;;;;;;;11.52;4.10;;;;;;;;;;5094747;28;20020;-36
2024/01/21 07:28:55;;;;;;;10.47;4.50;;;;;;;;;;5094656;28;20012;-35
2024/01/21 07:31:21;;;;;;;9.50;4.33;;;;;;;;;;5094896;28;20257;-35
2024/01/21 07:33:46;;;;;;;9.60;4.80;;;;;;;;;;5094580;28;20713;-35
2024/01/21 07:36:11;;;;;;;12.70;4.63;;;;;;;;;;5094227;28;20020;-35
2024/01/21 07:38:36;;;;;;;10.48;4.55;;;;;;;;;;5094177;28;20024;-35
2024/01/21 07:41:03;;;;;;;9.07;4.80;;;;;;;;;;5094723;28;20012;-35
2024/01/21 07:43:28;;;;;;;8.38;4.47;;;;;;;;;;5094294;28;20761;-35
2024/01/21 07:45:53;;;;;;;12.75;4.95;;;;;;;;;;5093862;28;20114;-35
2024/01/21 07:48:18;;;;;;;8.03;4.27;;;;;;;;;;5094068;28;20464;-35
2024/01/21 07:50:43;;;;;;;10.05;4.20;;;;;;;;;;5094283;28;20354;-36
2024/01/21 07:53:09;;;;;;;11.18;5.45;;;;;;;;;;5093835;28;20020;-34
2024/01/21 07:55:34;;;;;;;12.50;5.03;;;;;;;;;;5093983;28;20028;-35
2024/01/21 07:58:01;;;;;;;9.27;4.97;;;;;;;;;;5094164;28;20345;-34
2024/01/21 08:00:26;;;;;;;8.52;4.47;;;;;;;;;;5093706;28;20095;-36
2024/01/21 08:02:51;;;;;;;10.65;4.70;;;;;;;;;;5094277;28;20124;-36
2024/01/21 08:05:16;;;;;;;8.55;4.05;;;;;;;;;;5094005;28;20020;-35
2024/01/21 08:07:41;;;;;;;10.43;4.65;;;;;;;;;;5094127;28;20074;-34
2024/01/21 08:10:07;;;;;;;7.82;4.43;;;;;;;;;;5094010;28;20016;-33
2024/01/21 08:12:32;;;;;;;9.77;4.97;;;;;;;;;;5093762;28;20060;-34
2024/01/21 08:14:57;;;;;;;10.90;5.00;;;;;;;;;;5093639;28;20106;-35
2024/01/21 08:17:23;;;;;;;9.93;4.85;;;;;;;;;;5093826;28;20258;-35
2024/01/21 08:19:49;;;;;;;10.23;5.65;;;;;;;;;;5093823;28;20020;-35
2024/01/21 08:22:14;;;;;;;15.63;5.63;;;;;;;;;;5093690;28;20035;-35
2024/01/21 08:24:39;;;;;;;11.23;4.63;;;;;;;;;;5093493;28;20020;-35
2024/01/21 08:27:05;;;;;;;8.05;4.72;;;;;;;;;;5093341;28;20257;-35
2024/01/21 08:29:30;;;;;;;9.38;4.30;;;;;;;;;;5093415;28;20018;-36
2024/01/21 08:31:56;;;;;;;8.60;4.55;;;;;;;;;;5093592;28;20099;-36
2024/01/21 08:34:21;;;;;;;10.02;5.03;;;;;;;;;;5093988;28;20055;-36
2024/01/21 08:36:46;;;;;;;11.73;4.72;;;;;;;;;;5093922;28;20054;-35
2024/01/21 08:39:12;;;;;;;10.15;4.57;;;;;;;;;;5075165;28;20078;-36
2024/01/21 08:41:37;;;;;;;8.23;4.53;;;;;;;;;;5075225;28;20078;-36
2024/01/21 08:44:03;;;;;;;8.82;4.80;;;;;;;;;;5093606;28;20020;-36
2024/01/21 08:46:28;;;;;;;10.32;4.90;;;;;;;;;;5093273;28;20099;-35
2024/01/21 08:48:53;;;;;;;8.80;5.03;;;;;;;;;;5093875;28;20020;-34
2024/01/21 08:51:19;;;;;;;10.90;4.97;;;;;;;;;;5093529;28;20051;-37
2024/01/21 08:53:44;;;;;;;10.27;5.13;;;;;;;;;;5093312;28;20020;-36
2024/01/21 08:56:09;;;;;;;8.30;4.90;;;;;;;;;;5093296;28;20041;-35
2024/01/21 08:58:34;;;;;;;8.93;4.70;;;;;;;;;;5093171;28;20142;-35
2024/01/21 09:01:00;;;;;;;8.20;4.75;;;;;;;;;;5093074;28;20024;-35
2024/01/21 09:03:25;;;;;;;11.65;5.78;;;;;;;;;;5093083;28;20103;-35
2024/01/21 09:05:50;;;;;;;11.70;5.30;;;;;;;;;;5093676;28;20025;-35
2024/01/21 09:08:15;;;;;;;15.43;5.60;;;;;;;;;;5093003;28;20047;-35
2024/01/21 09:10:41;;;;;;;11.05;5.47;;;;;;;;;;5093469;28;20043;-34
2024/01/21 09:13:08;;;;;;;9.30;4.55;;;;;;;;;;5094863;28;20050;-35
2024/01/21 09:15:33;;;;;;;10.80;4.95;;;;;;;;;;5097287;28;20078;-35
2024/01/21 09:17:59;;;;;;;12.73;5.47;;;;;;;;;;5097475;28;20024;-35
2024/01/21 09:20:24;;;;;;;8.55;4.72;;;;;;;;;;5097784;28;20111;-35
2024/01/21 09:22:50;;;;;;;12.32;5.30;;;;;;;;;;5097449;28;20103;-42
2024/01/21 09:25:15;;;;;;;9.30;4.73;;;;;;;;;;5097142;28;20104;-35
2024/01/21 09:27:40;;;;;;;10.18;5.15;;;;;;;;;;5097395;28;20243;-35
2024/01/21 09:30:06;;;;;;;11.60;5.23;;;;;;;;;;5096861;28;20019;-36
2024/01/21 09:32:31;;;;;;;11.02;4.90;;;;;;;;;;5096715;28;20294;-35
2024/01/21 09:34:56;;;;;;;10.07;4.78;;;;;;;;;;5096657;28;20467;-35
2024/01/21 09:37:22;;;;;;;12.07;5.20;;;;;;;;;;5096924;28;20066;-34
2024/01/21 09:39:47;;;;;;;11.07;5.20;;;;;;;;;;5097179;28;20303;-39
2024/01/21 09:42:16;;;;;;;9.17;5.07;;;;;;;;;;5096548;28;20269;-35
2024/01/21 09:44:41;;;;;;;12.18;4.25;;;;;;;;;;5096413;28;20258;-37
2024/01/21 09:47:07;;;;;;;9.33;4.93;;;;;;;;;;5097102;28;20127;-37
2024/01/21 09:49:33;;;;;;;9.60;5.50;;;;;;;;;;5096443;28;20737;-36
2024/01/21 09:52:01;;;;;;;11.70;5.70;;;;;;;;;;5096328;28;20009;-36
2024/01/21 09:54:26;;;;;;;10.73;5.15;;;;;;;;;;5096866;28;20044;-36
2024/01/21 09:56:51;;;;;;;11.82;5.53;;;;;;;;;;5097114;28;20097;-38
2024/01/21 09:59:16;;;;;;;8.55;4.88;;;;;;;;;;5096181;28;20024;-37
2024/01/21 10:01:42;;;;;;;8.77;5.20;;;;;;;;;;5096456;28;20026;-37
2024/01/21 10:04:08;;;;;;;12.77;5.80;;;;;;;;;;5095928;28;20023;-36
2024/01/21 10:06:34;;;;;;;11.90;5.68;;;;;;;;;;5096314;28;20154;-36
2024/01/21 10:09:16;;;;;;;9.43;5.38;;;;;;;;;;5095920;28;20059;-36
2024/01/21 10:11:41;;;;;;;12.88;5.50;;;;;;;;;;5096135;28;20523;-36
2024/01/21 10:14:06;;;;;;;15.32;5.72;;;;;;;;;;5096213;28;20036;-37
2024/01/21 10:16:32;;;;;;;12.88;5.47;;;;;;;;;;5096548;28;20452;-35
2024/01/21 10:18:57;;;;;;;10.10;5.63;;;;;;;;;;5077868;28;20056;-37
2024/01/21 10:21:22;;;;;;;11.07;5.45;;;;;;;;;;5077761;28;20012;-37
2024/01/21 10:23:47;;;;;;;11.52;5.80;;;;;;;;;;5095470;28;20027;-36
2024/01/21 10:26:13;;;;;;;10.90;5.82;;;;;;;;;;5096026;28;20050;-36
2024/01/21 10:28:41;;;;;;;11.38;5.75;;;;;;;;;;5095781;28;20024;-35
2024/01/21 10:31:07;;;;;;;12.50;5.90;;;;;;;;;;5095558;28;20114;-35
2024/01/21 10:33:32;;;;;;;11.75;5.95;;;;;;;;;;5095875;28;20029;-36
2024/01/21 10:35:58;;;;;;;10.65;5.57;;;;;;;;;;5095531;28;20020;-35
2024/01/21 10:38:28;;;;;;;10.52;5.40;;;;;;;;;;5095422;28;20115;-35
2024/01/21 10:40:54;;;;;;;9.73;5.10;;;;;;;;;;5095392;28;20064;-35
2024/01/21 10:43:19;;;;;;;12.55;5.90;;;;;;;;;;5095301;28;20107;-36
2024/01/21 10:45:45;;;;;;;9.60;5.28;;;;;;;;;;5095974;28;20431;-40
2024/01/21 10:48:14;;;;;;;10.57;5.70;;;;;;;;;;5095617;28;20024;-38
2024/01/21 10:50:42;;;;;;;11.90;5.88;;;;;;;;;;5095923;28;20474;-36
2024/01/21 10:53:11;;;;;;;14.93;6.60;;;;;;;;;;5095199;28;20074;-39
2024/01/21 10:55:38;;;;;;;12.07;6.22;;;;;;;;;;5095472;28;20447;-35
2024/01/21 10:58:05;;;;;;;11.52;5.32;;;;;;;;;;5095494;28;20031;-36
2024/01/21 11:00:30;;;;;;;15.00;6.60;;;;;;;;;;5095099;28;20019;-36
2024/01/21 11:03:14;;;;;;;10.02;6.18;;;;;;;;;;5094811;28;20081;-36
2024/01/21 11:05:39;;;;;;;12.00;5.05;;;;;;;;;;5094980;28;20030;-35
2024/01/21 11:08:05;;;;;;;14.10;5.93;;;;;;;;;;5094810;28;20487;-35
2024/01/21 11:10:38;;;;;;;10.63;5.80;;;;;;;;;;5095243;28;20095;-37
2024/01/21 11:13:06;;;;;;;13.05;6.05;;;;;;;;;;5094914;28;20016;-35
2024/01/21 11:15:31;;;;;;;14.18;6.30;;;;;;;;;;5076727;28;20368;-36
2024/01/21 11:18:09;;;;;;;15.95;6.43;;;;;;;;;;5095439;28;20157;-37
2024/01/21 11:20:34;;;;;;;10.52;5.82;;;;;;;;;;5094799;28;20020;-37
2024/01/21 11:23:00;;;;;;;11.20;6.07;;;;;;;;;;5094634;28;20077;-36
2024/01/21 11:25:31;;;;;;;12.25;6.40;;;;;;;;;;5094727;28;20023;-36
2024/01/21 11:27:57;;;;;;;11.23;6.32;;;;;;;;;;5094594;28;20023;-36
2024/01/21 11:30:24;;;;;;;12.30;5.85;;;;;;;;;;5094764;28;20486;-36
2024/01/21 11:32:57;;;;;;;10.38;5.82;;;;;;;;;;5094375;28;20020;-36
2024/01/21 11:35:22;;;;;;;;;;;;;;;;;;5094797;28;20115;-37
2024/01/21 11:37:52;;;;;;;10.85;5.38;;;;;;;;;;5094404;28;19943;-37
2024/01/21 11:40:18;;;;;;;9.98;5.70;;;;;;;;;;5094321;28;20018;-36
2024/01/21 11:42:45;;;;;;;14.05;5.68;;;;;;;;;;5094545;28;20103;-36
2024/01/21 11:45:11;;;;;;;10.35;5.85;;;;;;;;;;5094417;28;20016;-34
2024/01/21 11:47:37;;;;;;;16.73;7.25;;;;;;;;;;5093882;28;20012;-37
2024/01/21 11:50:02;;;;;;;12.23;6.28;;;;;;;;;;5093616;28;20677;-36
2024/01/21 11:52:27;;;;;;;10.95;6.00;;;;;;;;;;5093542;28;20020;-37
2024/01/21 11:54:53;;;;;;;12.00;6.15;;;;;;;;;;5094078;28;20081;-35
2024/01/21 11:57:20;;;;;;;11.05;6.10;;;;;;;;;;5094090;28;20029;-36
2024/01/21 11:59:46;;;;;;;11.80;5.78;;;;;;;;;;5076124;28;20105;-37
2024/01/21 12:02:12;;;;;;;14.30;6.13;;;;;;;;;;5093742;28;20066;-34
2024/01/21 12:04:37;;;;;;;13.07;5.93;;;;;;;;;;5093755;28;20464;-36
2024/01/21 12:07:03;;;;;;;12.07;5.93;;;;;;;;;;5075830;28;20012;-38
2024/01/21 12:09:29;;;;;;;11.80;6.05;;;;;;;;;;5075637;28;20044;-37
2024/01/21 12:11:54;;;;;;;11.75;6.25;;;;;;;;;;5094027;28;20074;-35
2024/01/21 12:14:22;;;;;;;11.32;6.10;;;;;;;;;;5094064;28;20364;-37
2024/01/21 12:16:51;;;;;;;12.27;6.18;;;;;;;;;;5093983;28;20027;-36
2024/01/21 12:19:16;;;;;;;15.15;6.38;;;;;;;;;;5075596;28;20117;-36
2024/01/21 12:21:43;;;;;;;13.13;6.55;;;;;;;;;;5093702;28;20513;-36
2024/01/21 12:24:08;;;;;;;13.20;6.03;;;;;;;;;;5093830;28;20026;-36
2024/01/21 12:26:33;;;;;;;15.85;6.32;;;;;;;;;;5093945;28;20095;-36
2024/01/21 12:28:59;;;;;;;11.63;6.50;;;;;;;;;;5094186;28;20363;-36
2024/01/21 12:31:26;;;;;;;11.75;5.88;;;;;;;;;;5094345;28;20016;-36
2024/01/21 12:33:51;;;;;;;14.70;5.78;;;;;;;;;;5075461;28;20077;-36
2024/01/21 12:36:16;;;;;;;13.57;6.22;;;;;;;;;;5075456;28;20416;-36
2024/01/21 12:38:41;;;;;;;16.47;6.30;;;;;;;;;;5093598;28;20031;-37
2024/01/21 12:41:07;;;;;;;12.32;6.22;;;;;;;;;;5075543;28;20339;-39
2024/01/21 12:43:32;;;;;;;14.60;5.88;;;;;;;;;;5093401;28;20032;-37
2024/01/21 12:45:57;;;;;;;15.43;6.13;;;;;;;;;;5093788;28;20074;-37
2024/01/21 12:48:22;;;;;;;14.68;6.63;;;;;;;;;;5095845;28;20020;-36
2024/01/21 12:50:47;;;;;;;16.15;6.65;;;;;;;;;;5097693;28;20426;-37
2024/01/21 12:53:13;;;;;;;14.87;7.43;;;;;;;;;;5097646;28;20098;-37
2024/01/21 12:55:38;;;;;;;11.25;6.28;;;;;;;;;;5097425;28;20262;-38
2024/01/21 12:58:03;;;;;;;14.90;6.63;;;;;;;;;;5097388;28;20020;-34
2024/01/21 13:00:28;;;;;;;13.13;6.53;;;;;;;;;;5097472;28;20078;-35
2024/01/21 13:02:53;;;;;;;15.27;6.53;;;;;;;;;;5097216;28;20062;-37
2024/01/21 13:05:19;;;;;;;13.33;6.67;;;;;;;;;;5097202;28;20282;-37
2024/01/21 13:07:44;;;;;;;15.25;6.13;;;;;;;;;;5096879;28;20250;-37
2024/01/21 13:10:09;;;;;;;13.63;6.40;;;;;;;;;;5097711;28;20026;-37
2024/01/21 13:12:34;;;;;;;14.90;6.78;;;;;;;;;;5096985;28;20027;-37
2024/01/21 13:15:00;;;;;;;24.52;6.85;;;;;;;;;;5097096;28;20020;-37
2024/01/21 13:17:25;;;;;;;15.68;6.95;;;;;;;;;;5096973;28;20050;-35
2024/01/21 13:19:50;;;;;;;14.53;6.83;;;;;;;;;;5097523;28;20024;-35
2024/01/21 13:22:16;;;;;;;17.25;6.68;;;;;;;;;;5097018;28;20747;-35
2024/01/21 13:24:41;;;;;;;17.23;6.75;;;;;;;;;;5097853;28;20024;-35
2024/01/21 13:27:16;;;;;;;16.67;6.70;;;;;;;;;;5097050;28;20012;-36
2024/01/21 13:32:25;;;;;;;14.38;6.43;;;;;;;;;;5097560;28;20541;-35
2024/01/21 13:34:50;;;;;;;17.67;7.57;;;;;;;;;;5096895;28;20028;-36
2024/01/21 13:37:16;;;;;;;13.60;5.80;;;;;;;;;;5096831;28;20506;-36
2024/01/21 13:39:41;;;;;;;15.60;7.30;;;;;;;;;;5096537;28;20471;-37
2024/01/21 13:42:06;;;;;;;21.77;7.90;;;;;;;;;;5096370;28;20028;-36
2024/01/21 13:44:32;;;;;;;18.90;6.90;;;;;;;;;;5096635;28;20058;-36
2024/01/21 13:46:57;;;;;;;20.45;7.35;;;;;;;;;;5096364;28;20455;-35
2024/01/21 13:49:23;;;;;;;14.40;7.68;;;;;;;;;;5096693;28;20016;-36
2024/01/21 13:51:48;;;;;;;12.75;7.05;;;;;;;;;;5096320;28;20379;-35
2024/01/21 13:54:13;;;;;;;12.70;6.25;;;;;;;;;;5096270;28;20016;-35
2024/01/21 13:56:38;;;;;;;14.07;7.00;;;;;;;;;;5096309;28;20020;-36
2024/01/21 13:59:04;;;;;;;19.77;6.70;;;;;;;;;;5095973;28;20024;-35
2024/01/21 14:01:29;;;;;;;18.57;7.00;;;;;;;;;;5096737;28;20338;-35
2024/01/21 14:03:54;;;;;;;20.02;7.25;;;;;;;;;;5095954;28;20679;-35
2024/01/21 14:06:19;;;;;;;13.73;6.68;;;;;;;;;;5096337;28;20115;-36
2024/01/21 14:08:44;;;;;;;19.50;7.28;;;;;;;;;;5095914;28;20062;-36
2024/01/21 14:11:09;;;;;;;19.03;7.30;;;;;;;;;;5095877;28;20042;-36
2024/01/21 14:13:36;;;;;;;20.85;7.22;;;;;;;;;;5096742;28;20268;-36
2024/01/21 14:16:02;;;;;;;17.08;7.85;;;;;;;;;;5096134;28;20111;-35
2024/01/21 14:18:27;;;;;;;19.13;7.70;;;;;;;;;;5095787;28;20056;-36
2024/01/21 14:20:52;;;;;;;16.13;6.85;;;;;;;;;;5077529;28;20020;-35
2024/01/21 14:23:17;;;;;;;18.10;7.47;;;;;;;;;;5095714;28;20032;-35
2024/01/21 14:25:44;;;;;;;21.88;7.30;;;;;;;;;;5095707;28;20251;-36
2024/01/21 14:28:09;;;;;;;19.73;7.70;;;;;;;;;;5095665;28;20016;-35